Taipei, Taiwan
Current Conditions -  °F | °C
As of 9:30 PM on Saturday 20 Dec 2014 (Local Time) from RCSS Reporting Station
Broken Clouds Broken Clouds  
Wind Chill: 61°   Ceiling: 5000
Heat Index: 61°   Visibility: 6mi
Dew Point: 46°   Wind: 14mph
Humidity: 59%   Direction: 110°ESE
Pressure: 30.21"   Gusts: NA
Location:  25.02°N, 121.45°E
Report Text: RCSS 201330Z 11012KT 9999 FEW025 BKN050 16/08 Q1023 NOSIGRMK A3023
Loading
Personal Weather Stations






























Interactive Weather Map New forecast layout! Learn more

10-Day Weather Forecast

Advertisements
Track Severe Weather on mobile